createdAt,value
2022-12-06T00:00:47.263Z,1.6
2022-12-06T00:01:49.373Z,1.6
2022-12-06T00:02:47.416Z,1.6
2022-12-06T00:03:47.506Z,1.6
2022-12-06T00:04:48.983Z,1.6
2022-12-06T00:05:47.577Z,1.5
2022-12-06T00:06:47.673Z,1.5
2022-12-06T00:07:49.427Z,1.6
2022-12-06T00:08:47.781Z,1.6
2022-12-06T00:09:47.840Z,1.5
2022-12-06T00:10:52.464Z,1.5
2022-12-06T00:11:48.030Z,1.6
2022-12-06T00:12:48.102Z,1.5
2022-12-06T00:13:49.070Z,1.5
2022-12-06T00:14:48.226Z,1.5
2022-12-06T00:15:48.272Z,1.5
2022-12-06T00:16:48.964Z,1.5
2022-12-06T00:17:59.913Z,1.5
2022-12-06T00:19:03.680Z,1.4
2022-12-06T00:20:14.606Z,1.5
2022-12-06T00:21:03.851Z,1.4
2022-12-06T00:22:03.933Z,1.4
2022-12-06T00:23:05.933Z,1.4
2022-12-06T00:25:29.256Z,1.4
2022-12-06T00:26:04.300Z,1.4
2022-12-06T00:27:04.296Z,1.5
2022-12-06T00:28:04.396Z,1.6
2022-12-06T00:29:04.511Z,1.6
2022-12-06T00:30:04.566Z,1.6
2022-12-06T00:31:04.562Z,1.5
2022-12-06T00:32:04.713Z,1.6
2022-12-06T00:33:04.706Z,1.6
2022-12-06T00:34:04.737Z,1.6
2022-12-06T00:35:04.810Z,1.6
2022-12-06T00:36:04.874Z,1.6
2022-12-06T00:37:04.977Z,1.7
2022-12-06T00:38:04.995Z,1.7
2022-12-06T00:39:05.102Z,1.7
2022-12-06T00:40:05.169Z,1.7
2022-12-06T00:41:05.205Z,1.6
2022-12-06T00:42:05.330Z,1.6
2022-12-06T00:43:05.350Z,1.6
2022-12-06T00:44:05.430Z,1.6
2022-12-06T00:45:05.501Z,1.6
2022-12-06T00:46:05.612Z,1.7
2022-12-06T00:47:05.645Z,1.6
2022-12-06T00:48:05.704Z,1.5
2022-12-06T00:49:05.774Z,1.5
2022-12-06T00:50:05.828Z,1.4
2022-12-06T00:51:05.952Z,1.5
2022-12-06T00:52:05.984Z,1.6
2022-12-06T00:53:06.071Z,1.6
2022-12-06T00:54:06.103Z,1.6
2022-12-06T00:55:06.203Z,1.6
2022-12-06T00:56:06.268Z,1.6
2022-12-06T00:57:06.316Z,1.7
2022-12-06T00:58:06.434Z,1.7
2022-12-06T00:59:06.605Z,1.6
2022-12-06T01:00:06.533Z,1.5
2022-12-06T01:01:06.653Z,1.4
2022-12-06T01:02:06.699Z,1.4
2022-12-06T01:03:06.769Z,1.3
2022-12-06T01:04:06.889Z,1.3
2022-12-06T01:05:06.922Z,1.4
2022-12-06T01:06:06.965Z,1.5
2022-12-06T01:07:07.008Z,1.5
2022-12-06T01:08:07.115Z,1.5
2022-12-06T01:09:07.141Z,1.5
2022-12-06T01:10:07.242Z,1.5
2022-12-06T01:11:07.338Z,1.5
2022-12-06T01:12:07.413Z,1.3
2022-12-06T01:13:07.515Z,1.3
2022-12-06T01:14:07.602Z,1.3
2022-12-06T01:15:07.654Z,1.3
2022-12-06T01:16:07.808Z,1.3
2022-12-06T01:17:07.869Z,1.2
2022-12-06T01:18:07.896Z,1.3
2022-12-06T01:19:08.017Z,1.3
2022-12-06T01:20:08.072Z,1.3
2022-12-06T01:21:08.119Z,1.4
2022-12-06T01:22:08.205Z,1.4
2022-12-06T01:23:08.332Z,1.5
2022-12-06T01:24:08.450Z,1.4
2022-12-06T01:25:08.471Z,1.3
2022-12-06T01:26:08.612Z,1.3
2022-12-06T01:27:08.597Z,1.4
2022-12-06T01:28:08.717Z,1.4
2022-12-06T01:29:08.709Z,1.3
2022-12-06T01:30:08.772Z,1.2
2022-12-06T01:31:09.049Z,1.2
2022-12-06T01:32:13.808Z,1.3
2022-12-06T01:33:08.886Z,1.3
2022-12-06T01:34:09.008Z,1.3
2022-12-06T01:35:09.011Z,1.4
2022-12-06T01:36:09.029Z,1.5
2022-12-06T01:37:09.083Z,1.4
2022-12-06T01:38:09.087Z,1.3
2022-12-06T01:39:09.124Z,1.3
2022-12-06T01:40:09.211Z,1.4
2022-12-06T01:41:09.326Z,1.4
2022-12-06T01:42:09.293Z,1.4
2022-12-06T01:43:09.432Z,1.3
2022-12-06T01:44:09.398Z,1.3
2022-12-06T01:45:09.422Z,1.3
2022-12-06T01:46:09.619Z,1.3
2022-12-06T01:47:09.568Z,1.4
2022-12-06T01:48:09.643Z,1.5
2022-12-06T01:49:09.695Z,1.5
2022-12-06T01:50:09.762Z,1.2
2022-12-06T01:51:09.819Z,1.2
2022-12-06T01:52:09.895Z,1.3
2022-12-06T01:53:10.000Z,1.3
2022-12-06T01:54:10.106Z,1.4
2022-12-06T01:55:10.098Z,1.5
2022-12-06T01:56:10.168Z,1.5
2022-12-06T01:57:10.252Z,1.4
2022-12-06T01:58:10.273Z,1.4
2022-12-06T01:59:10.361Z,1.3
2022-12-06T02:00:10.434Z,1.3
2022-12-06T02:01:10.554Z,1.3
2022-12-06T02:02:10.639Z,1.4
2022-12-06T02:03:10.682Z,1.3
2022-12-06T02:04:10.732Z,1.4
2022-12-06T02:05:10.791Z,1.4
2022-12-06T02:06:10.898Z,1.5
2022-12-06T02:07:10.932Z,1.4
2022-12-06T02:08:11.114Z,1.4
2022-12-06T02:09:11.488Z,1.5
2022-12-06T02:10:11.190Z,1.5
2022-12-06T02:11:11.252Z,1.5
2022-12-06T02:12:11.402Z,1.5
2022-12-06T02:13:11.395Z,1.5
2022-12-06T02:14:11.489Z,1.5
2022-12-06T02:15:11.521Z,1.6
2022-12-06T02:16:11.638Z,1.6
2022-12-06T02:17:11.722Z,1.6
2022-12-06T02:18:11.805Z,1.5
2022-12-06T02:19:11.865Z,1.5
2022-12-06T02:20:11.924Z,1.5
2022-12-06T02:21:12.029Z,1.4
2022-12-06T02:22:12.089Z,1.4
2022-12-06T02:23:12.240Z,1.4
2022-12-06T02:24:12.270Z,1.5
2022-12-06T02:25:12.331Z,1.5
2022-12-06T02:26:12.465Z,1.4
2022-12-06T02:27:12.752Z,1.4
2022-12-06T02:28:12.872Z,1.4
2022-12-06T02:29:12.724Z,1.4
2022-12-06T02:30:12.813Z,1.4
2022-12-06T02:31:12.903Z,1.4
2022-12-06T02:32:12.930Z,1.4
2022-12-06T02:33:13.058Z,1.4
2022-12-06T02:34:13.129Z,1.4
2022-12-06T02:35:13.192Z,1.5
2022-12-06T02:36:13.262Z,1.5
2022-12-06T02:37:13.352Z,1.5
2022-12-06T02:38:13.499Z,1.5
2022-12-06T02:39:13.571Z,1.5
2022-12-06T02:40:13.595Z,1.4
2022-12-06T02:41:13.714Z,1.4
2022-12-06T02:42:13.851Z,1.4
2022-12-06T02:43:13.940Z,1.3
2022-12-06T02:44:14.003Z,1.4
2022-12-06T02:45:14.058Z,1.4
2022-12-06T02:46:14.264Z,1.4
2022-12-06T02:47:14.225Z,1.4
2022-12-06T02:48:14.332Z,1.5
2022-12-06T02:49:14.427Z,1.5
2022-12-06T02:50:14.566Z,1.5
2022-12-06T02:51:14.574Z,1.5
2022-12-06T02:52:14.658Z,1.5
2022-12-06T02:53:14.715Z,1.6
2022-12-06T02:54:14.761Z,1.7
2022-12-06T02:55:14.830Z,1.7
2022-12-06T02:56:14.859Z,1.6
2022-12-06T02:57:14.922Z,1.6
2022-12-06T02:58:14.983Z,1.6
2022-12-06T02:59:15.071Z,1.5
2022-12-06T03:00:15.127Z,1.5
2022-12-06T03:01:15.363Z,1.5
2022-12-06T03:02:15.317Z,1.5
2022-12-06T03:03:15.352Z,1.4
2022-12-06T03:04:15.436Z,1.4
2022-12-06T03:05:15.490Z,1.5
2022-12-06T03:06:15.599Z,1.6
2022-12-06T03:07:15.617Z,1.6
2022-12-06T03:08:15.800Z,1.5
2022-12-06T03:09:15.802Z,1.5
2022-12-06T03:10:15.876Z,1.6
2022-12-06T03:11:15.951Z,1.5
2022-12-06T03:12:16.019Z,1.6
2022-12-06T03:13:16.129Z,1.6
2022-12-06T03:14:16.175Z,1.5
2022-12-06T03:15:16.234Z,1.5
2022-12-06T03:16:16.337Z,1.6
2022-12-06T03:17:16.397Z,1.6
2022-12-06T03:18:16.489Z,1.5
2022-12-06T03:19:16.554Z,1.6
2022-12-06T03:20:16.596Z,1.7
2022-12-06T03:21:16.656Z,1.7
2022-12-06T03:22:16.759Z,1.7
2022-12-06T03:23:16.816Z,1.7
2022-12-06T03:24:16.910Z,1.8
2022-12-06T03:25:17.151Z,1.8
2022-12-06T03:26:17.091Z,1.8
2022-12-06T03:27:17.136Z,1.8
2022-12-06T03:28:17.194Z,1.8
2022-12-06T03:29:17.279Z,1.8
2022-12-06T03:30:17.355Z,1.7
2022-12-06T03:31:17.458Z,1.8
2022-12-06T03:32:17.538Z,1.8
2022-12-06T03:33:17.614Z,1.7
2022-12-06T03:34:17.713Z,1.6
2022-12-06T03:35:18.167Z,1.6
2022-12-06T03:36:17.862Z,1.7
2022-12-06T03:37:17.912Z,1.7
2022-12-06T03:38:18.021Z,1.7
2022-12-06T03:39:18.049Z,1.7
2022-12-06T03:40:18.127Z,1.7
2022-12-06T03:41:18.229Z,1.8
2022-12-06T03:42:18.316Z,1.8
2022-12-06T03:43:18.369Z,1.8
2022-12-06T03:44:18.471Z,1.8
2022-12-06T03:45:22.378Z,1.8
2022-12-06T03:46:18.712Z,1.9
2022-12-06T03:47:18.880Z,1.9
2022-12-06T03:48:18.806Z,1.9
2022-12-06T03:49:18.816Z,1.9
2022-12-06T03:50:18.888Z,1.9
2022-12-06T03:51:18.986Z,1.9
2022-12-06T03:52:19.034Z,1.9
2022-12-06T03:53:19.120Z,1.7
2022-12-06T03:54:19.206Z,1.7
2022-12-06T03:55:20.691Z,1.7
2022-12-06T03:56:19.421Z,1.7
2022-12-06T03:57:19.423Z,1.7
2022-12-06T03:58:19.502Z,1.7
2022-12-06T03:59:19.563Z,1.8
2022-12-06T04:00:19.667Z,1.8
2022-12-06T04:01:19.744Z,1.8
2022-12-06T04:02:19.753Z,1.9
2022-12-06T04:03:19.875Z,1.9
2022-12-06T04:04:19.955Z,1.8
2022-12-06T04:05:19.931Z,1.8
2022-12-06T04:06:20.021Z,1.9
2022-12-06T04:07:20.030Z,1.8
2022-12-06T04:08:20.233Z,1.8
2022-12-06T04:09:20.166Z,1.9
2022-12-06T04:10:20.331Z,1.9
2022-12-06T04:11:20.289Z,1.9
2022-12-06T04:12:20.331Z,1.9
2022-12-06T04:13:20.416Z,1.8
2022-12-06T04:14:20.523Z,1.7
2022-12-06T04:15:20.973Z,1.7
2022-12-06T04:16:20.708Z,1.6
2022-12-06T04:17:20.672Z,1.7
2022-12-06T04:18:20.800Z,1.8
2022-12-06T04:19:20.861Z,1.8
2022-12-06T04:20:20.903Z,1.8
2022-12-06T04:21:20.941Z,1.8
2022-12-06T04:22:21.261Z,1.8
2022-12-06T04:23:21.082Z,1.7
2022-12-06T04:24:21.135Z,1.7
2022-12-06T04:25:22.829Z,1.7
2022-12-06T04:26:21.337Z,1.8
2022-12-06T04:27:21.729Z,1.7
2022-12-06T04:28:21.727Z,1.6
2022-12-06T04:29:21.527Z,1.7
2022-12-06T04:31:29.239Z,1.7
2022-12-06T04:31:30.386Z,1.7
2022-12-06T04:32:21.884Z,1.7
2022-12-06T04:33:22.503Z,1.7
2022-12-06T04:34:22.939Z,1.7
2022-12-06T04:35:21.907Z,1.6
2022-12-06T04:36:21.932Z,1.6
2022-12-06T04:37:23.657Z,1.7
2022-12-06T04:38:22.086Z,1.7
2022-12-06T04:39:22.122Z,1.7
2022-12-06T04:40:22.785Z,1.8
2022-12-06T04:41:22.842Z,1.8
2022-12-06T04:42:22.396Z,1.8
2022-12-06T04:43:25.065Z,1.8
2022-12-06T04:44:22.456Z,1.8
2022-12-06T04:45:22.584Z,1.9
2022-12-06T04:46:23.083Z,1.9
2022-12-06T04:47:22.695Z,1.9
2022-12-06T04:48:22.804Z,1.9
2022-12-06T04:49:23.604Z,2
2022-12-06T04:50:22.914Z,1.9
2022-12-06T04:51:22.978Z,1.9
2022-12-06T04:52:23.227Z,1.8
2022-12-06T04:53:23.162Z,1.8
2022-12-06T04:54:23.258Z,1.8
2022-12-06T04:55:25.706Z,1.8
2022-12-06T04:56:23.360Z,1.9
2022-12-06T04:57:23.406Z,1.9
2022-12-06T04:58:23.964Z,1.8
2022-12-06T04:59:23.560Z,1.8
2022-12-06T05:00:23.617Z,1.8
2022-12-06T05:01:23.752Z,1.8
2022-12-06T05:02:23.705Z,1.7
2022-12-06T05:03:23.829Z,1.7
2022-12-06T05:04:24.925Z,1.7
2022-12-06T05:05:23.797Z,1.8
2022-12-06T05:06:23.873Z,1.8
2022-12-06T05:07:24.894Z,1.8
2022-12-06T05:08:24.063Z,1.8
2022-12-06T05:09:24.110Z,1.8
2022-12-06T05:10:24.136Z,1.8
2022-12-06T05:11:24.236Z,1.8
2022-12-06T05:12:24.327Z,1.8
2022-12-06T05:13:24.390Z,1.8
2022-12-06T05:14:24.517Z,1.8
2022-12-06T05:15:28.983Z,1.9
2022-12-06T05:16:24.660Z,1.9
2022-12-06T05:17:24.633Z,1.9
2022-12-06T05:18:24.690Z,1.9
2022-12-06T05:19:24.750Z,2
2022-12-06T05:20:24.785Z,2
2022-12-06T05:21:24.874Z,2.1
2022-12-06T05:22:24.903Z,2
2022-12-06T05:23:25.006Z,1.9
2022-12-06T05:24:25.042Z,1.9
2022-12-06T05:25:25.134Z,2
2022-12-06T05:26:25.156Z,2
2022-12-06T05:27:25.215Z,2
2022-12-06T05:28:25.315Z,2
2022-12-06T05:29:25.448Z,2
2022-12-06T05:30:25.471Z,2
2022-12-06T05:31:25.726Z,2
2022-12-06T05:32:25.605Z,1.9
2022-12-06T05:33:25.695Z,1.9
2022-12-06T05:34:25.737Z,1.9
2022-12-06T05:35:25.758Z,1.9
2022-12-06T05:36:25.860Z,2
2022-12-06T05:37:25.950Z,2
2022-12-06T05:38:25.983Z,2
2022-12-06T05:39:26.107Z,2.1
2022-12-06T05:40:26.190Z,2.1
2022-12-06T05:41:26.225Z,2.1
2022-12-06T05:42:26.299Z,2.1
2022-12-06T05:43:26.381Z,2.1
2022-12-06T05:44:26.452Z,2.2
2022-12-06T05:45:26.526Z,2.1
2022-12-06T05:46:26.657Z,2.1
2022-12-06T05:47:26.613Z,2.2
2022-12-06T05:48:30.324Z,2.1
2022-12-06T05:49:36.324Z,2.1
2022-12-06T05:50:36.269Z,2.1
2022-12-06T05:51:36.343Z,2.1
2022-12-06T05:52:36.441Z,2.1
2022-12-06T05:53:36.485Z,2.1
2022-12-06T05:54:36.567Z,2.1
2022-12-06T05:55:36.635Z,2.1
2022-12-06T05:56:36.718Z,2
2022-12-06T05:57:36.831Z,1.9
2022-12-06T05:58:36.903Z,1.9
2022-12-06T05:59:37.006Z,2
2022-12-06T06:00:37.055Z,2.1
2022-12-06T06:01:37.151Z,2.2
2022-12-06T06:02:37.279Z,2.2
2022-12-06T06:03:39.886Z,2.2
2022-12-06T06:04:37.387Z,2.2
2022-12-06T06:05:37.446Z,2.2
2022-12-06T06:06:37.535Z,2.1
2022-12-06T06:07:37.649Z,2.1
2022-12-06T06:08:37.700Z,2.2
2022-12-06T06:09:37.790Z,2.2
2022-12-06T06:10:37.860Z,2.2
2022-12-06T06:11:37.909Z,2.2
2022-12-06T06:12:38.039Z,2.2
2022-12-06T06:13:38.068Z,2.2
2022-12-06T06:14:38.147Z,2.2
2022-12-06T06:15:38.232Z,2.2
2022-12-06T06:16:38.405Z,2.2
2022-12-06T06:17:38.405Z,2.2
2022-12-06T06:18:38.463Z,2.2
2022-12-06T06:19:38.614Z,2.2
2022-12-06T06:20:38.661Z,2.1
2022-12-06T06:21:38.657Z,2.1
2022-12-06T06:23:03.011Z,2.1
2022-12-06T06:23:39.176Z,2.2
2022-12-06T06:24:39.158Z,2.2
2022-12-06T06:25:42.614Z,2.3
2022-12-06T06:26:39.800Z,2.3
2022-12-06T06:27:39.433Z,2.2
2022-12-06T06:28:39.100Z,2.1
2022-12-06T06:29:43.687Z,2.2
2022-12-06T06:30:39.204Z,2.2
2022-12-06T06:31:41.719Z,2.2
2022-12-06T06:32:39.316Z,2.2
2022-12-06T06:33:39.516Z,2.3
2022-12-06T06:34:39.453Z,2.2
2022-12-06T06:35:39.497Z,2.1
2022-12-06T06:36:44.039Z,2.1
2022-12-06T06:37:39.627Z,2.1
2022-12-06T06:38:39.754Z,2.2
2022-12-06T06:39:39.861Z,2.3
2022-12-06T06:40:39.818Z,2.3
2022-12-06T06:41:39.901Z,2.2
2022-12-06T06:42:39.953Z,2.2
2022-12-06T06:43:40.026Z,2.2
2022-12-06T06:44:40.101Z,2.2
2022-12-06T06:45:40.228Z,2.2
2022-12-06T06:46:40.219Z,2.2
2022-12-06T06:47:40.300Z,2.2
2022-12-06T06:48:40.413Z,2.3
2022-12-06T06:49:40.483Z,2.2
2022-12-06T06:50:40.494Z,2.2
2022-12-06T06:51:40.559Z,2.3
2022-12-06T06:52:40.623Z,2.2
2022-12-06T06:53:40.703Z,2.1
2022-12-06T06:54:40.784Z,2.1
2022-12-06T06:55:40.858Z,2.1
2022-12-06T06:56:40.940Z,2.1
2022-12-06T06:57:41.000Z,2.1
2022-12-06T06:58:41.066Z,2.1
2022-12-06T06:59:41.153Z,2.1
2022-12-06T07:00:41.212Z,2.1
2022-12-06T07:01:42.093Z,2.1
2022-12-06T07:02:41.362Z,2.1
2022-12-06T07:03:41.407Z,2.1
2022-12-06T07:04:41.500Z,2.1
2022-12-06T07:05:41.620Z,2.2
2022-12-06T07:06:41.609Z,2.2
2022-12-06T07:07:41.750Z,2.2
2022-12-06T07:08:41.780Z,2.3
2022-12-06T07:09:41.857Z,2.2
2022-12-06T07:10:41.940Z,2.2
2022-12-06T07:11:42.003Z,2.2
2022-12-06T07:12:42.110Z,2.2
2022-12-06T07:13:44.678Z,2.2
2022-12-06T07:14:42.347Z,2.2
2022-12-06T07:15:42.300Z,2.3
2022-12-06T07:16:42.468Z,2.3
2022-12-06T07:17:42.481Z,2.3
2022-12-06T07:18:42.537Z,2.3
2022-12-06T07:20:33.417Z,2.3
2022-12-06T07:23:03.286Z,2.3
2022-12-06T07:24:03.344Z,2.3
2022-12-06T07:25:03.435Z,2.2
2022-12-06T07:26:03.541Z,2.2
2022-12-06T07:27:03.610Z,2.2
2022-12-06T07:28:03.709Z,2.2
2022-12-06T07:29:03.772Z,2.3
2022-12-06T07:30:03.964Z,2.4
2022-12-06T07:31:04.030Z,2.4
2022-12-06T07:32:04.018Z,2.4
2022-12-06T07:33:04.077Z,2.4
2022-12-06T07:34:04.200Z,2.3
2022-12-06T07:35:04.297Z,2.3
2022-12-06T07:36:11.787Z,2.3
2022-12-06T07:37:04.481Z,2.3
2022-12-06T07:38:04.588Z,2.3
2022-12-06T07:39:06.034Z,2.3
2022-12-06T07:40:04.678Z,2.4
2022-12-06T07:41:05.352Z,2.4
2022-12-06T07:42:04.764Z,2.4
2022-12-06T07:43:04.797Z,2.4
2022-12-06T07:44:04.885Z,2.4
2022-12-06T07:45:04.947Z,2.3
2022-12-06T07:46:05.177Z,2.2
2022-12-06T07:47:05.080Z,2.3
2022-12-06T07:48:05.145Z,2.3
2022-12-06T07:49:05.198Z,2.3
2022-12-06T07:50:05.299Z,2.4
2022-12-06T07:51:05.319Z,2.4
2022-12-06T07:52:05.386Z,2.3
2022-12-06T07:53:05.498Z,2.4
2022-12-06T07:54:05.573Z,2.4
2022-12-06T07:55:05.672Z,2.5
2022-12-06T07:56:05.699Z,2.4
2022-12-06T07:57:05.753Z,2.4
2022-12-06T07:58:05.835Z,2.5
2022-12-06T07:59:05.907Z,2.4
2022-12-06T08:00:05.986Z,2.4
2022-12-06T08:01:06.129Z,2.4
2022-12-06T08:02:06.109Z,2.5
2022-12-06T08:03:06.198Z,2.5
2022-12-06T08:04:06.329Z,2.4
2022-12-06T08:05:06.314Z,2.4
2022-12-06T08:06:06.386Z,2.5
2022-12-06T08:07:06.424Z,2.4
2022-12-06T08:08:06.542Z,2.4
2022-12-06T08:09:06.562Z,2.4
2022-12-06T08:10:06.638Z,2.4
2022-12-06T08:11:06.739Z,2.4
2022-12-06T08:12:06.797Z,2.5
2022-12-06T08:13:06.870Z,2.5
2022-12-06T08:14:06.930Z,2.5
2022-12-06T08:15:06.991Z,2.4
2022-12-06T08:16:07.121Z,2.4
2022-12-06T08:17:07.120Z,2.4
2022-12-06T08:18:07.189Z,2.4
2022-12-06T08:19:07.270Z,2.5
2022-12-06T08:20:07.315Z,2.5
2022-12-06T08:21:07.428Z,2.5
2022-12-06T08:22:07.456Z,2.5
2022-12-06T08:23:07.545Z,2.5
2022-12-06T08:24:07.947Z,2.4
2022-12-06T08:25:07.720Z,2.4
2022-12-06T08:26:08.816Z,2.5
2022-12-06T08:27:17.843Z,2.5
2022-12-06T08:28:08.015Z,2.5
2022-12-06T08:30:08.056Z,2.5
2022-12-06T08:31:08.812Z,2.5
2022-12-06T08:32:11.569Z,2.5
2022-12-06T08:35:09.953Z,2.5
2022-12-06T08:36:08.550Z,2.5
2022-12-06T08:37:08.455Z,2.4
2022-12-06T08:38:08.807Z,2.4
2022-12-06T08:39:18.360Z,2.5
2022-12-06T08:44:53.392Z,2.5
2022-12-06T08:49:29.750Z,2.6
2022-12-06T08:50:07.183Z,2.6
2022-12-06T08:51:07.267Z,2.6
2022-12-06T08:52:07.276Z,2.7
2022-12-06T08:53:07.337Z,2.7
2022-12-06T08:54:07.730Z,2.7
2022-12-06T08:55:07.449Z,2.7
2022-12-06T08:56:07.518Z,2.7
2022-12-06T08:57:07.538Z,2.6
2022-12-06T08:58:07.700Z,2.6
2022-12-06T08:59:07.757Z,2.6
2022-12-06T09:00:12.682Z,2.6
2022-12-06T09:01:07.842Z,2.6
2022-12-06T09:02:07.844Z,2.6
2022-12-06T09:03:11.627Z,2.6
2022-12-06T09:04:08.076Z,2.6
2022-12-06T09:05:12.231Z,2.6
2022-12-06T09:06:14.618Z,2.6
2022-12-06T09:07:11.601Z,2.6
2022-12-06T09:08:08.177Z,2.6
2022-12-06T09:09:08.201Z,2.6
2022-12-06T09:10:08.257Z,2.6
2022-12-06T09:11:08.302Z,2.7
2022-12-06T09:12:08.336Z,2.7
2022-12-06T09:13:08.358Z,2.7
2022-12-06T09:14:08.410Z,2.7
2022-12-06T09:15:08.468Z,2.7
2022-12-06T09:16:08.600Z,2.8
2022-12-06T09:17:08.581Z,2.8
2022-12-06T09:39:09.826Z,2.9
2022-12-06T09:40:09.859Z,3
2022-12-06T09:41:15.631Z,3
2022-12-06T09:42:10.918Z,2.9
2022-12-06T09:43:10.175Z,2.9
2022-12-06T09:44:10.158Z,2.9
2022-12-06T09:45:10.203Z,3
2022-12-06T09:46:10.319Z,2.9
2022-12-06T09:47:10.318Z,2.9
2022-12-06T09:48:10.346Z,3
2022-12-06T09:49:10.401Z,3.1
2022-12-06T09:50:10.462Z,3.1
2022-12-06T09:51:10.512Z,3.1
2022-12-06T09:52:10.545Z,3
2022-12-06T09:53:10.720Z,3
2022-12-06T09:54:11.677Z,3
2022-12-06T09:55:14.675Z,3
2022-12-06T09:56:10.816Z,3
2022-12-06T09:57:10.891Z,2.9
2022-12-06T09:58:10.901Z,3
2022-12-06T09:59:11.008Z,3
2022-12-06T10:00:12.043Z,3
2022-12-06T10:01:11.062Z,3
2022-12-06T10:02:11.140Z,3
2022-12-06T10:03:11.299Z,2.9
2022-12-06T10:04:11.288Z,2.9
2022-12-06T10:05:11.408Z,3
2022-12-06T10:06:11.423Z,3
2022-12-06T10:07:11.459Z,3
2022-12-06T10:08:11.558Z,3
2022-12-06T10:09:11.690Z,3
2022-12-06T10:10:11.658Z,3.1
2022-12-06T10:11:11.671Z,3.1
2022-12-06T10:12:11.734Z,3.1
2022-12-06T10:13:11.770Z,3.1
2022-12-06T10:14:11.864Z,3
2022-12-06T10:15:11.915Z,3
2022-12-06T10:16:11.974Z,3.1
2022-12-06T10:17:12.020Z,3.1
2022-12-06T10:18:12.121Z,3.2
2022-12-06T10:19:12.142Z,3.1
2022-12-06T10:20:12.207Z,3.1
2022-12-06T10:21:12.251Z,3.1
2022-12-06T10:22:12.299Z,3.1
2022-12-06T10:23:12.358Z,3.1
2022-12-06T10:24:12.432Z,3.1
2022-12-06T10:25:12.459Z,3.1
2022-12-06T10:26:12.572Z,3.1
2022-12-06T10:27:12.638Z,3.1
2022-12-06T10:28:12.663Z,3.1
2022-12-06T10:29:12.743Z,3.1
2022-12-06T10:30:14.726Z,3.1
2022-12-06T10:31:12.809Z,3.2
2022-12-06T10:32:12.864Z,3.2
2022-12-06T10:33:12.967Z,3.3
2022-12-06T10:34:13.014Z,3.3
2022-12-06T10:35:13.029Z,3.3
2022-12-06T10:36:13.098Z,3.3
2022-12-06T10:37:16.190Z,3.2
2022-12-06T10:38:13.199Z,3.2
2022-12-06T10:40:15.227Z,3.2
2022-12-06T10:41:21.277Z,3.2
2022-12-06T10:42:15.318Z,3.2
2022-12-06T10:49:19.295Z,3.3
2022-12-06T10:50:19.382Z,3.3
2022-12-06T10:51:19.367Z,3.3
2022-12-06T10:52:19.439Z,3.2
2022-12-06T10:53:20.646Z,3.3
2022-12-06T10:54:19.850Z,3.3
2022-12-06T10:55:19.985Z,3.4
2022-12-06T10:56:19.763Z,3.4
2022-12-06T10:57:19.832Z,3.4
2022-12-06T10:58:19.882Z,3.3
2022-12-06T10:59:19.975Z,3.3
2022-12-06T11:00:20.325Z,3.3
2022-12-06T11:01:20.170Z,3.3
2022-12-06T11:02:20.275Z,3.4
2022-12-06T11:03:20.228Z,3.3
2022-12-06T11:04:20.344Z,3.3
2022-12-06T11:05:20.332Z,3.3
2022-12-06T11:06:20.416Z,3.4
2022-12-06T11:07:20.486Z,3.4
2022-12-06T11:08:20.654Z,3.3
2022-12-06T11:09:20.637Z,3.3
2022-12-06T11:10:20.667Z,3.4
2022-12-06T11:11:20.764Z,3.4
2022-12-06T11:12:20.977Z,3.4
2022-12-06T11:13:21.413Z,3.4
2022-12-06T11:14:21.026Z,3.4
2022-12-06T11:15:21.059Z,3.4
2022-12-06T11:16:21.142Z,3.3
2022-12-06T11:17:21.098Z,3.3
2022-12-06T11:18:22.277Z,3.3
2022-12-06T11:20:40.251Z,3.3
2022-12-06T11:21:56.427Z,3.4
2022-12-06T11:22:56.464Z,3.4
2022-12-06T11:23:56.640Z,3.5
2022-12-06T11:24:56.626Z,3.5
2022-12-06T11:25:57.494Z,3.5
2022-12-06T11:26:56.782Z,3.5
2022-12-06T11:27:56.802Z,3.4
2022-12-06T11:28:56.880Z,3.4
2022-12-06T11:29:56.997Z,3.4
2022-12-06T11:30:56.973Z,3.4
2022-12-06T11:31:57.122Z,3.4
2022-12-06T11:32:57.112Z,3.5
2022-12-06T11:33:57.205Z,3.5
2022-12-06T11:34:57.250Z,3.5
2022-12-06T11:36:06.886Z,3.5
2022-12-06T11:37:00.285Z,3.6
2022-12-06T11:37:57.444Z,3.6
2022-12-06T11:38:57.480Z,3.5
2022-12-06T11:39:57.824Z,3.6
2022-12-06T11:40:57.626Z,3.5
2022-12-06T11:41:57.687Z,3.5
2022-12-06T11:42:57.718Z,3.5
2022-12-06T11:43:57.882Z,3.5
2022-12-06T11:44:57.887Z,3.6
2022-12-06T11:45:58.663Z,3.6
2022-12-06T11:46:58.095Z,3.5
2022-12-06T11:47:58.037Z,3.5
2022-12-06T11:48:58.232Z,3.5
2022-12-06T11:50:01.614Z,3.6
2022-12-06T11:50:58.326Z,3.6
2022-12-06T11:51:59.241Z,3.6
2022-12-06T11:52:58.593Z,3.6
2022-12-06T11:53:58.627Z,3.6
2022-12-06T11:54:59.010Z,3.6
2022-12-06T11:55:58.689Z,3.6
2022-12-06T11:57:00.162Z,3.6
2022-12-06T11:57:58.842Z,3.6
2022-12-06T11:58:58.935Z,3.6
2022-12-06T11:59:59.220Z,3.6
2022-12-06T12:00:59.652Z,3.6
2022-12-06T12:01:59.341Z,3.6
2022-12-06T12:02:59.217Z,3.6
2022-12-06T12:03:59.195Z,3.6
2022-12-06T12:04:59.503Z,3.6
2022-12-06T12:05:59.374Z,3.6
2022-12-06T12:06:59.455Z,3.6
2022-12-06T12:08:02.211Z,3.7
2022-12-06T12:08:59.524Z,3.7
2022-12-06T12:09:59.633Z,3.6
2022-12-06T12:10:59.735Z,3.6
2022-12-06T12:11:59.764Z,3.7
2022-12-06T12:12:59.791Z,3.6
2022-12-06T12:13:59.916Z,3.6
2022-12-06T12:15:00.030Z,3.6
2022-12-06T12:16:00.141Z,3.6
2022-12-06T12:17:00.235Z,3.6
2022-12-06T12:18:00.123Z,3.6
2022-12-06T12:19:00.192Z,3.6
2022-12-06T12:20:00.245Z,3.6
2022-12-06T12:21:00.350Z,3.6
2022-12-06T12:22:00.413Z,3.6
2022-12-06T12:23:00.461Z,3.6
2022-12-06T12:24:00.514Z,3.6
2022-12-06T12:25:18.245Z,3.6
2022-12-06T12:26:00.678Z,3.6
2022-12-06T12:27:00.721Z,3.6
2022-12-06T12:28:00.757Z,3.6
2022-12-06T12:29:00.770Z,3.6
2022-12-06T12:30:00.835Z,3.7
2022-12-06T12:31:00.840Z,3.7
2022-12-06T12:32:01.023Z,3.7
2022-12-06T12:33:00.961Z,3.7
2022-12-06T12:34:01.011Z,3.8
2022-12-06T12:35:01.291Z,3.8
2022-12-06T12:36:01.088Z,3.8
2022-12-06T12:37:01.180Z,3.8
2022-12-06T12:38:01.224Z,3.8
2022-12-06T12:39:01.267Z,3.8
2022-12-06T12:40:03.728Z,3.8
2022-12-06T12:41:01.388Z,3.8
2022-12-06T12:42:01.477Z,3.8
2022-12-06T12:43:01.517Z,3.8
2022-12-06T12:44:28.749Z,3.8
2022-12-06T12:45:03.441Z,3.8
2022-12-06T12:46:02.857Z,3.8
2022-12-06T12:47:01.732Z,3.8
2022-12-06T12:48:01.934Z,3.8
2022-12-06T12:49:01.872Z,3.8
2022-12-06T12:50:01.888Z,3.8
2022-12-06T12:51:06.281Z,3.8
2022-12-06T12:52:02.044Z,3.8
2022-12-06T12:53:05.498Z,3.8
2022-12-06T12:54:02.145Z,3.8
2022-12-06T12:55:18.086Z,3.8
2022-12-06T12:56:02.227Z,3.8
2022-12-06T12:58:24.728Z,3.8
2022-12-06T12:59:02.371Z,3.8
2022-12-06T13:00:02.365Z,3.8
2022-12-06T13:01:02.521Z,3.9
2022-12-06T13:02:02.553Z,3.8
2022-12-06T13:03:02.584Z,3.8
2022-12-06T13:04:02.616Z,3.8
2022-12-06T13:05:31.047Z,3.8
2022-12-06T13:06:02.713Z,3.8
2022-12-06T13:07:02.809Z,3.8
2022-12-06T13:08:02.898Z,3.8
2022-12-06T13:09:02.909Z,3.8
2022-12-06T13:10:02.956Z,3.8
2022-12-06T13:11:03.074Z,3.9
2022-12-06T13:12:03.076Z,3.8
2022-12-06T13:13:03.164Z,3.8
2022-12-06T13:14:03.330Z,3.8
2022-12-06T13:15:03.458Z,3.8
2022-12-06T13:16:07.384Z,3.9
2022-12-06T13:17:03.565Z,3.8
2022-12-06T13:18:03.484Z,3.8
2022-12-06T13:19:13.384Z,3.9
2022-12-06T13:20:03.772Z,3.8
2022-12-06T13:21:03.861Z,3.8
2022-12-06T13:22:09.579Z,3.8
2022-12-06T13:23:11.415Z,3.8
2022-12-06T13:24:11.402Z,3.8
2022-12-06T13:25:11.431Z,3.8
2022-12-06T13:26:11.559Z,3.8
2022-12-06T13:27:11.570Z,3.8
2022-12-06T13:28:14.280Z,3.8
2022-12-06T13:29:11.785Z,3.8
2022-12-06T13:30:14.123Z,3.8
2022-12-06T13:31:12.842Z,3.8
2022-12-06T13:32:11.942Z,3.8
2022-12-06T13:33:15.206Z,3.8
2022-12-06T13:34:12.039Z,3.8
2022-12-06T13:35:12.111Z,3.8
2022-12-06T13:36:12.216Z,3.8
2022-12-06T13:37:12.334Z,3.8
2022-12-06T13:38:12.330Z,3.8
2022-12-06T13:39:12.301Z,3.8
2022-12-06T13:40:12.394Z,3.8
2022-12-06T13:41:12.404Z,3.8
2022-12-06T13:42:12.454Z,3.8
2022-12-06T13:43:22.756Z,3.8
2022-12-06T13:44:12.592Z,3.8
2022-12-06T13:45:12.576Z,3.8
2022-12-06T13:46:12.702Z,3.8
2022-12-06T13:47:12.788Z,3.8
2022-12-06T13:48:13.145Z,3.9
2022-12-06T13:49:12.871Z,3.8
2022-12-06T13:50:12.906Z,3.9
2022-12-06T13:51:12.989Z,3.9
2022-12-06T13:52:13.097Z,3.9
2022-12-06T13:53:13.113Z,3.9
2022-12-06T13:54:13.178Z,3.9
2022-12-06T13:55:17.203Z,3.9
2022-12-06T13:56:13.281Z,3.9
2022-12-06T13:57:13.390Z,3.9
2022-12-06T13:58:13.397Z,3.9
2022-12-06T13:59:13.478Z,3.9
2022-12-06T14:00:13.576Z,3.9
2022-12-06T14:01:13.628Z,3.9
2022-12-06T14:02:13.725Z,3.9
2022-12-06T14:03:14.489Z,3.9
2022-12-06T14:04:13.857Z,3.9
2022-12-06T14:05:13.974Z,3.9
2022-12-06T14:06:15.612Z,3.9
2022-12-06T14:08:14.167Z,3.9
2022-12-06T14:09:14.153Z,3.9
2022-12-06T14:10:14.187Z,3.9
2022-12-06T14:11:14.271Z,3.9
2022-12-06T14:12:14.365Z,3.9
2022-12-06T14:13:14.373Z,3.9
2022-12-06T14:14:14.505Z,3.9
2022-12-06T14:15:14.582Z,3.9
2022-12-06T14:16:14.638Z,3.9
2022-12-06T14:17:26.908Z,3.9
2022-12-06T14:18:14.832Z,4
2022-12-06T14:19:14.855Z,3.9
2022-12-06T14:20:14.915Z,3.9
2022-12-06T14:21:14.961Z,4
2022-12-06T14:22:15.088Z,4
2022-12-06T14:23:15.100Z,3.9
2022-12-06T14:24:15.223Z,3.9
2022-12-06T14:25:15.235Z,3.9
2022-12-06T14:26:15.300Z,3.9
2022-12-06T14:27:15.418Z,3.9
2022-12-06T14:28:15.443Z,3.9
2022-12-06T14:29:15.525Z,4
2022-12-06T14:30:15.580Z,3.9
2022-12-06T14:31:15.661Z,3.9
2022-12-06T14:32:15.695Z,3.9
2022-12-06T14:33:16.087Z,3.9
2022-12-06T14:34:15.885Z,3.9
2022-12-06T14:35:16.279Z,3.9
2022-12-06T14:36:17.153Z,3.9